createdAt,value
2022-11-23T00:02:30.355Z,4.04
2022-11-23T00:09:32.171Z,3.96
2022-11-23T00:16:33.922Z,3.93
2022-11-23T00:23:35.900Z,3.97
2022-11-23T00:30:37.453Z,4.00
2022-11-23T00:37:39.356Z,4.03
2022-11-23T00:44:40.901Z,4.02
2022-11-23T00:51:42.455Z,3.91
2022-11-23T00:58:50.890Z,3.95
2022-11-23T01:05:52.523Z,3.97
2022-11-23T01:12:55.604Z,4.01
2022-11-23T01:19:57.173Z,4.10
2022-11-23T01:26:58.809Z,4.08
2022-11-23T01:34:02.395Z,3.99
2022-11-23T01:41:05.735Z,3.98
2022-11-23T01:48:17.916Z,4.04
2022-11-23T01:55:19.522Z,4.07
2022-11-23T02:02:21.130Z,4.09
2022-11-23T02:09:27.189Z,4.14
2022-11-23T02:16:28.801Z,4.14
2022-11-23T02:23:57.450Z,4.19
2022-11-23T02:30:59.018Z,4.18
2022-11-23T02:38:04.877Z,4.22
2022-11-23T02:45:06.398Z,4.19
2022-11-23T02:52:08.264Z,4.19
2022-11-23T02:59:09.842Z,4.26
2022-11-23T03:06:11.763Z,4.19
2022-11-23T03:13:13.402Z,4.19
2022-11-23T03:20:16.392Z,4.20
2022-11-23T03:27:20.589Z,4.16
2022-11-23T03:34:22.786Z,4.11
2022-11-23T03:41:25.566Z,3.99
2022-11-23T03:48:28.403Z,4.01
2022-11-23T03:55:30.091Z,3.94
2022-11-23T04:02:33.165Z,3.87
2022-11-23T04:09:41.439Z,3.86
2022-11-23T04:16:58.230Z,3.86
2022-11-23T04:24:00.134Z,3.98
2022-11-23T04:31:04.792Z,3.90
2022-11-23T04:38:16.591Z,3.88
2022-11-23T04:45:18.263Z,3.88
2022-11-23T04:52:20.172Z,3.84
2022-11-23T04:59:25.095Z,3.82
2022-11-23T05:06:27.312Z,3.78
2022-11-23T05:13:29.654Z,3.79
2022-11-23T05:20:32.563Z,3.81
2022-11-23T05:27:35.179Z,3.79
2022-11-23T05:34:36.844Z,3.83
2022-11-23T05:41:39.714Z,3.83
2022-11-23T05:48:53.918Z,3.88
2022-11-23T05:56:02.063Z,3.88
2022-11-23T06:03:08.836Z,3.97
2022-11-23T06:10:10.984Z,4.02
2022-11-23T06:17:15.527Z,3.88
2022-11-23T06:24:24.407Z,3.91
2022-11-23T06:31:46.099Z,3.83
2022-11-23T06:38:48.302Z,3.78
2022-11-23T06:45:55.154Z,3.82
2022-11-23T06:52:59.758Z,3.81
2022-11-23T07:00:11.551Z,3.86
2022-11-23T07:07:13.874Z,3.92
2022-11-23T07:14:23.063Z,3.88
2022-11-23T07:21:26.256Z,3.88
2022-11-23T07:28:28.309Z,3.86
2022-11-23T07:35:30.026Z,3.83
2022-11-23T07:42:36.835Z,3.78
2022-11-23T07:49:42.861Z,3.77
2022-11-23T07:56:44.411Z,3.92
2022-11-23T08:03:46.370Z,3.92
2022-11-23T08:10:53.019Z,3.97
2022-11-23T08:18:00.157Z,4.02
2022-11-23T08:25:01.730Z,4.09
2022-11-23T08:32:03.339Z,4.32
2022-11-23T08:39:05.084Z,4.34
2022-11-23T08:46:10.858Z,4.45
2022-11-23T08:53:12.913Z,4.61
2022-11-23T09:00:15.084Z,4.82
2022-11-23T09:07:16.692Z,4.97
2022-11-23T09:14:18.425Z,5.15
2022-11-23T09:21:20.532Z,5.28
2022-11-23T09:28:24.315Z,5.37
2022-11-23T09:35:25.886Z,5.42
2022-11-23T09:42:54.507Z,5.38
2022-11-23T09:50:08.183Z,5.58
2022-11-23T09:57:09.883Z,5.50
2022-11-23T10:04:16.561Z,5.60
2022-11-23T10:11:43.971Z,5.76
2022-11-23T10:19:05.514Z,5.71
2022-11-23T10:26:13.132Z,5.81
2022-11-23T10:33:31.403Z,5.94
2022-11-23T10:40:33.014Z,6.00
2022-11-23T10:47:50.650Z,6.06
2022-11-23T10:54:53.565Z,6.19
2022-11-23T11:02:18.548Z,6.20
2022-11-23T11:09:20.909Z,6.37
2022-11-23T11:16:26.636Z,7.21
2022-11-23T11:23:28.722Z,7.44
2022-11-23T11:30:42.519Z,7.61
2022-11-23T11:37:45.389Z,7.65
2022-11-23T11:44:47.255Z,7.84
2022-11-23T11:51:51.792Z,8.10
2022-11-23T11:59:17.971Z,8.18
2022-11-23T12:06:32.830Z,8.22
2022-11-23T12:13:35.601Z,8.32
2022-11-23T12:20:40.056Z,8.43
2022-11-23T12:28:11.228Z,8.52
2022-11-23T12:35:45.119Z,8.59
2022-11-23T12:42:55.564Z,8.78
2022-11-23T12:50:18.345Z,8.80
2022-11-23T12:57:28.358Z,8.83
2022-11-23T13:04:44.288Z,8.94
2022-11-23T13:12:05.808Z,9.01
2022-11-23T13:19:27.237Z,9.05
2022-11-23T13:26:29.370Z,9.11
2022-11-23T13:33:37.802Z,9.12
2022-11-23T13:40:39.779Z,9.11
2022-11-23T13:47:43.798Z,9.12
2022-11-23T13:55:03.967Z,9.09
2022-11-23T14:02:10.328Z,9.15
2022-11-23T14:09:19.678Z,9.18
2022-11-23T14:16:41.128Z,9.13
2022-11-23T14:24:15.740Z,9.18
2022-11-23T14:31:45.225Z,9.14
2022-11-23T14:39:24.276Z,9.04
2022-11-23T14:46:26.035Z,8.94
2022-11-23T14:53:45.411Z,8.86
2022-11-23T15:00:48.274Z,8.84
2022-11-23T15:07:58.143Z,8.69
2022-11-23T15:14:59.742Z,8.66
2022-11-23T15:22:01.384Z,8.59
2022-11-23T15:29:03.058Z,8.41
2022-11-23T15:36:05.940Z,8.28
2022-11-23T15:43:14.125Z,8.34
2022-11-23T15:50:15.962Z,8.25
2022-11-23T15:57:19.935Z,8.08
2022-11-23T16:04:39.394Z,8.07
2022-11-23T16:11:44.203Z,8.07
2022-11-23T16:18:46.543Z,8.04
2022-11-23T16:26:01.736Z,7.98
2022-11-23T16:33:03.778Z,7.99
2022-11-23T16:40:05.989Z,7.82
2022-11-23T16:47:20.803Z,7.82
2022-11-23T16:54:25.099Z,7.75
2022-11-23T17:01:27.861Z,7.70
2022-11-23T17:08:29.465Z,7.62
2022-11-23T17:15:31.086Z,7.59
2022-11-23T17:22:32.660Z,7.63
2022-11-23T17:29:39.023Z,7.55
2022-11-23T17:36:43.342Z,7.45
2022-11-23T17:43:45.165Z,7.44
2022-11-23T17:50:47.505Z,7.41
2022-11-23T17:57:49.091Z,7.39
2022-11-23T18:04:50.699Z,7.28
2022-11-23T18:11:52.272Z,7.34
2022-11-23T18:18:53.967Z,7.25
2022-11-23T18:26:01.107Z,7.25
2022-11-23T18:33:02.661Z,7.19
2022-11-23T18:40:04.702Z,7.07
2022-11-23T18:47:06.261Z,7.04
2022-11-23T18:54:08.045Z,6.97
2022-11-23T19:01:12.626Z,6.94
2022-11-23T19:08:17.160Z,6.84
2022-11-23T19:15:19.060Z,6.84
2022-11-23T19:22:20.663Z,6.81
2022-11-23T19:29:24.909Z,6.87
2022-11-23T19:36:27.179Z,6.89
2022-11-23T19:43:28.827Z,6.82
2022-11-23T19:50:30.383Z,6.76
2022-11-23T19:57:31.947Z,6.64
2022-11-23T20:04:33.693Z,6.57
2022-11-23T20:11:35.521Z,6.52
2022-11-23T20:18:37.147Z,6.43
2022-11-23T20:25:38.793Z,6.42
2022-11-23T20:32:40.420Z,6.42
2022-11-23T20:39:42.038Z,6.44
2022-11-23T20:54:05.319Z,6.31
2022-11-23T21:01:17.181Z,6.33
2022-11-23T21:08:27.878Z,6.19
2022-11-23T21:15:31.916Z,6.20
2022-11-23T21:22:33.491Z,6.15
2022-11-23T21:29:35.143Z,6.11
2022-11-23T21:36:39.027Z,6.09
2022-11-23T21:43:40.671Z,6.04
2022-11-23T21:50:42.332Z,6.05
2022-11-23T21:57:43.895Z,6.05
2022-11-23T22:04:45.764Z,5.85
2022-11-23T22:11:47.422Z,5.92
2022-11-23T22:18:54.013Z,5.95
2022-11-23T22:26:22.847Z,5.89
2022-11-23T22:33:24.531Z,5.97
2022-11-23T22:40:26.920Z,5.85
2022-11-23T22:47:28.746Z,5.68
2022-11-23T22:54:30.633Z,5.67
2022-11-23T23:01:32.595Z,5.68
2022-11-23T23:08:34.239Z,5.77
2022-11-23T23:15:36.156Z,5.72
2022-11-23T23:22:38.987Z,5.62
2022-11-23T23:29:40.728Z,5.62
2022-11-23T23:36:42.377Z,5.61
2022-11-23T23:43:44.165Z,5.46
2022-11-23T23:50:45.820Z,5.51
2022-11-23T23:57:47.529Z,5.64
